SRR701 EBLG-EKBI
Flight info
| Callsign | SRR701 |
|---|---|
| Flight time | 1h 24m |
| Altitude | 34000 |
| Route | BUB2R BUB M624 NIK L191 VICOT DCT JUIST N873 IQITA DCT REXMI DCT MIKRO DCT GELBA DCT |
| Aircraft | B77L/H-SDE1E2E3FGHIJ2J3J4J5M1RWXY/LB1D1 |
Departure
| Time | 2026-05-08 04:05 |
|---|---|
| Airport | Liège Airport (EBLG) |
Arrival
| Time | 2026-05-08 05:29 |
|---|---|
| Airport | Billund Airport (EKBI) |
| Time | Latitude | Longitude | Altitude | Speed | Heading |
|---|---|---|---|---|---|
| 2026-05-08 03:54 | 50.63429 | 5.44281 | 634 ft | 2 kts | 45° |
| 2026-05-08 03:58 | 50.63436 | 5.44294 | 634 ft | 3 kts | 45° |
| 2026-05-08 03:58 | 50.63459 | 5.44330 | 631 ft | 7 kts | 45° |
| 2026-05-08 03:58 | 50.63503 | 5.44398 | 637 ft | 11 kts | 45° |
| 2026-05-08 03:58 | 50.63569 | 5.44502 | 634 ft | 15 kts | 45° |
| 2026-05-08 03:59 | 50.63642 | 5.44617 | 621 ft | 14 kts | 45° |
| 2026-05-08 03:59 | 50.63711 | 5.44727 | 632 ft | 14 kts | 45° |
| 2026-05-08 03:59 | 50.63777 | 5.44829 | 620 ft | 13 kts | 45° |
| 2026-05-08 03:59 | 50.63839 | 5.44927 | 620 ft | 12 kts | 45° |
| 2026-05-08 04:00 | 50.63896 | 5.45019 | 620 ft | 11 kts | 45° |
| 2026-05-08 04:00 | 50.63952 | 5.45109 | 631 ft | 13 kts | 45° |
| 2026-05-08 04:00 | 50.64045 | 5.45254 | 630 ft | 21 kts | 44° |
| 2026-05-08 04:00 | 50.64149 | 5.45416 | 631 ft | 20 kts | 45° |
| 2026-05-08 04:01 | 50.64246 | 5.45573 | 620 ft | 20 kts | 46° |
| 2026-05-08 04:01 | 50.64340 | 5.45722 | 630 ft | 19 kts | 44° |
| 2026-05-08 04:01 | 50.64429 | 5.45863 | 634 ft | 18 kts | 45° |
| 2026-05-08 04:01 | 50.64514 | 5.45998 | 627 ft | 17 kts | 45° |
| 2026-05-08 04:02 | 50.64595 | 5.46125 | 632 ft | 16 kts | 45° |
| 2026-05-08 04:02 | 50.64671 | 5.46246 | 620 ft | 15 kts | 45° |
| 2026-05-08 04:02 | 50.64743 | 5.46360 | 624 ft | 14 kts | 45° |
| 2026-05-08 04:02 | 50.64810 | 5.46468 | 620 ft | 13 kts | 46° |
| 2026-05-08 04:03 | 50.64874 | 5.46570 | 627 ft | 13 kts | 44° |
| 2026-05-08 04:03 | 50.64995 | 5.46533 | 620 ft | 10 kts | 309° |
| 2026-05-08 04:03 | 50.65003 | 5.46435 | 620 ft | 9 kts | 250° |
| 2026-05-08 04:04 | 50.64950 | 5.46325 | 625 ft | 24 kts | 227° |
| 2026-05-08 04:04 | 50.64702 | 5.45937 | 626 ft | 94 kts | 225° |
| 2026-05-08 04:04 | 50.63993 | 5.44820 | 637 ft | 190 kts | 225° |
| 2026-05-08 04:04 | 50.63042 | 5.43257 | 1255 ft | 193 kts | 224° |
| 2026-05-08 04:05 | 50.62036 | 5.41686 | 1567 ft | 213 kts | 224° |
| 2026-05-08 04:05 | 50.60974 | 5.40013 | 2190 ft | 220 kts | 224° |
| 2026-05-08 04:05 | 50.59861 | 5.38230 | 2573 ft | 239 kts | 227° |
| 2026-05-08 04:05 | 50.59058 | 5.35859 | 2906 ft | 257 kts | 262° |
| 2026-05-08 04:06 | 50.59326 | 5.33083 | 3543 ft | 264 kts | 297° |
| 2026-05-08 04:06 | 50.60254 | 5.30576 | 4166 ft | 269 kts | 301° |
| 2026-05-08 04:06 | 50.61189 | 5.28025 | 5013 ft | 269 kts | 299° |
| 2026-05-08 04:06 | 50.62092 | 5.25442 | 5760 ft | 268 kts | 298° |
| 2026-05-08 04:07 | 50.62988 | 5.22822 | 6090 ft | 275 kts | 298° |
| 2026-05-08 04:07 | 50.63902 | 5.20146 | 6074 ft | 278 kts | 299° |
| 2026-05-08 04:07 | 50.64869 | 5.17514 | 6077 ft | 276 kts | 300° |
| 2026-05-08 04:07 | 50.65845 | 5.14898 | 6324 ft | 277 kts | 300° |
| 2026-05-08 04:08 | 50.66820 | 5.12271 | 7106 ft | 279 kts | 300° |
| 2026-05-08 04:08 | 50.67797 | 5.09624 | 7918 ft | 280 kts | 300° |
| 2026-05-08 04:08 | 50.68814 | 5.06991 | 8657 ft | 282 kts | 302° |
| 2026-05-08 04:08 | 50.69881 | 5.04364 | 9353 ft | 286 kts | 303° |
| 2026-05-08 04:09 | 50.70965 | 5.01713 | 10082 ft | 289 kts | 303° |
| 2026-05-08 04:09 | 50.72069 | 4.99010 | 10623 ft | 300 kts | 302° |
| 2026-05-08 04:09 | 50.73241 | 4.96125 | 10814 ft | 325 kts | 302° |
| 2026-05-08 04:09 | 50.74501 | 4.93013 | 11018 ft | 349 kts | 302° |
| 2026-05-08 04:10 | 50.75849 | 4.89674 | 11394 ft | 367 kts | 302° |
| 2026-05-08 04:10 | 50.77234 | 4.86238 | 12112 ft | 375 kts | 302° |
| 2026-05-08 04:10 | 50.78642 | 4.82739 | 13002 ft | 378 kts | 301° |
| 2026-05-08 04:10 | 50.80056 | 4.79217 | 13909 ft | 382 kts | 301° |
| 2026-05-08 04:11 | 50.81466 | 4.75698 | 14739 ft | 386 kts | 301° |
| 2026-05-08 04:11 | 50.82905 | 4.72105 | 15541 ft | 390 kts | 301° |
| 2026-05-08 04:11 | 50.84368 | 4.68444 | 16350 ft | 394 kts | 301° |
| 2026-05-08 04:11 | 50.85831 | 4.64779 | 17115 ft | 397 kts | 301° |
| 2026-05-08 04:12 | 50.87315 | 4.61055 | 17860 ft | 401 kts | 301° |
| 2026-05-08 04:12 | 50.88813 | 4.57292 | 18578 ft | 405 kts | 301° |
| 2026-05-08 04:12 | 50.90378 | 4.53569 | 19261 ft | 410 kts | 307° |
| 2026-05-08 04:12 | 50.92430 | 4.50364 | 19904 ft | 417 kts | 318° |
| 2026-05-08 04:13 | 50.94686 | 4.47455 | 20576 ft | 420 kts | 319° |
| 2026-05-08 04:13 | 50.96976 | 4.44538 | 21192 ft | 424 kts | 319° |
| 2026-05-08 04:13 | 50.99278 | 4.41564 | 21813 ft | 428 kts | 319° |
| 2026-05-08 04:13 | 51.01574 | 4.38542 | 22425 ft | 432 kts | 318° |
| 2026-05-08 04:14 | 51.03886 | 4.35455 | 23011 ft | 435 kts | 318° |
| 2026-05-08 04:14 | 51.06199 | 4.32345 | 23586 ft | 438 kts | 317° |
| 2026-05-08 04:14 | 51.08535 | 4.29188 | 24152 ft | 442 kts | 317° |
| 2026-05-08 04:14 | 51.10881 | 4.26012 | 24698 ft | 445 kts | 317° |
| 2026-05-08 04:15 | 51.13256 | 4.22798 | 25246 ft | 448 kts | 317° |
| 2026-05-08 04:15 | 51.15640 | 4.19570 | 25781 ft | 451 kts | 317° |
| 2026-05-08 04:15 | 51.18097 | 4.16432 | 26289 ft | 455 kts | 321° |
| 2026-05-08 04:15 | 51.20659 | 4.13439 | 26778 ft | 459 kts | 322° |
| 2026-05-08 04:16 | 51.23261 | 4.10451 | 27262 ft | 461 kts | 322° |
| 2026-05-08 04:16 | 51.26040 | 4.07835 | 27676 ft | 468 kts | 333° |
| 2026-05-08 04:16 | 51.29135 | 4.06079 | 28109 ft | 474 kts | 343° |
| 2026-05-08 04:16 | 51.32399 | 4.05155 | 28540 ft | 481 kts | 354° |
| 2026-05-08 04:17 | 51.35719 | 4.05116 | 28944 ft | 485 kts | 359° |
| 2026-05-08 04:17 | 51.39147 | 4.05228 | 29314 ft | 488 kts | 358° |
| 2026-05-08 04:17 | 51.42504 | 4.05241 | 29670 ft | 489 kts | 358° |
| 2026-05-08 04:17 | 51.45906 | 4.05692 | 29971 ft | 496 kts | 9° |
| 2026-05-08 04:18 | 51.49207 | 4.07334 | 30393 ft | 500 kts | 21° |
| 2026-05-08 04:18 | 51.52258 | 4.10008 | 30882 ft | 501 kts | 34° |
| 2026-05-08 04:18 | 51.54995 | 4.13471 | 31330 ft | 500 kts | 38° |
| 2026-05-08 04:18 | 51.57668 | 4.17040 | 31720 ft | 500 kts | 38° |
| 2026-05-08 04:19 | 51.60333 | 4.20635 | 32140 ft | 499 kts | 38° |
| 2026-05-08 04:19 | 51.62996 | 4.24213 | 32522 ft | 499 kts | 38° |
| 2026-05-08 04:19 | 51.65673 | 4.27781 | 32915 ft | 499 kts | 38° |
| 2026-05-08 04:19 | 51.68342 | 4.31312 | 33328 ft | 497 kts | 38° |
| 2026-05-08 04:20 | 51.71029 | 4.34848 | 33726 ft | 496 kts | 37° |
| 2026-05-08 04:20 | 51.73695 | 4.38346 | 34081 ft | 496 kts | 37° |
| 2026-05-08 04:20 | 51.79087 | 4.45427 | 34106 ft | 499 kts | 37° |
| 2026-05-08 04:21 | 51.84442 | 4.52485 | 34094 ft | 495 kts | 38° |
| 2026-05-08 04:21 | 51.89755 | 4.59518 | 34107 ft | 493 kts | 38° |
| 2026-05-08 04:22 | 51.95031 | 4.66523 | 34103 ft | 493 kts | 38° |
| 2026-05-08 04:22 | 52.00337 | 4.73589 | 34104 ft | 493 kts | 38° |
| 2026-05-08 04:23 | 52.05635 | 4.80670 | 34105 ft | 494 kts | 38° |
| 2026-05-08 04:23 | 52.10945 | 4.87788 | 34101 ft | 494 kts | 38° |
| 2026-05-08 04:24 | 52.16251 | 4.94924 | 34104 ft | 494 kts | 38° |
| 2026-05-08 04:24 | 52.21545 | 5.02071 | 34111 ft | 494 kts | 38° |
| 2026-05-08 04:25 | 52.26835 | 5.09229 | 34110 ft | 494 kts | 38° |
| 2026-05-08 04:25 | 52.32125 | 5.16410 | 34112 ft | 494 kts | 38° |
| 2026-05-08 04:26 | 52.37412 | 5.23612 | 34111 ft | 494 kts | 38° |
| 2026-05-08 04:26 | 52.42691 | 5.30826 | 34118 ft | 494 kts | 38° |
| 2026-05-08 04:27 | 52.47968 | 5.38061 | 34126 ft | 494 kts | 38° |
| 2026-05-08 04:27 | 52.53227 | 5.45295 | 34130 ft | 494 kts | 38° |
| 2026-05-08 04:28 | 52.58497 | 5.52567 | 34129 ft | 494 kts | 39° |
| 2026-05-08 04:28 | 52.63727 | 5.59804 | 34131 ft | 494 kts | 39° |
| 2026-05-08 04:29 | 52.68975 | 5.67094 | 34130 ft | 494 kts | 39° |
| 2026-05-08 04:29 | 52.74221 | 5.74407 | 34128 ft | 494 kts | 39° |
| 2026-05-08 04:30 | 52.79460 | 5.81730 | 34130 ft | 493 kts | 39° |
| 2026-05-08 04:30 | 52.84689 | 5.89066 | 34129 ft | 493 kts | 39° |
| 2026-05-08 04:31 | 52.89922 | 5.96429 | 34128 ft | 493 kts | 39° |
| 2026-05-08 04:31 | 52.95138 | 6.03795 | 34132 ft | 492 kts | 39° |
| 2026-05-08 04:32 | 53.00347 | 6.11163 | 34133 ft | 491 kts | 40° |
| 2026-05-08 04:32 | 53.05508 | 6.18499 | 34127 ft | 491 kts | 40° |
| 2026-05-08 04:33 | 53.10688 | 6.25892 | 34130 ft | 490 kts | 40° |
| 2026-05-08 04:33 | 53.15859 | 6.33289 | 34129 ft | 490 kts | 40° |
| 2026-05-08 04:34 | 53.21022 | 6.40699 | 34128 ft | 490 kts | 40° |
| 2026-05-08 04:34 | 53.26171 | 6.48112 | 34112 ft | 485 kts | 40° |
| 2026-05-08 04:35 | 53.31191 | 6.55365 | 33994 ft | 468 kts | 40° |
| 2026-05-08 04:35 | 53.36032 | 6.62382 | 33876 ft | 453 kts | 41° |
| 2026-05-08 04:36 | 53.40723 | 6.69202 | 33632 ft | 442 kts | 41° |
| 2026-05-08 04:36 | 53.43045 | 6.72586 | 33359 ft | 441 kts | 41° |
| 2026-05-08 04:36 | 53.45358 | 6.75960 | 32993 ft | 442 kts | 41° |
| 2026-05-08 04:37 | 53.47676 | 6.79347 | 32617 ft | 443 kts | 41° |
| 2026-05-08 04:37 | 53.49220 | 6.81607 | 32406 ft | 442 kts | 41° |
| 2026-05-08 04:37 | 53.51537 | 6.85002 | 32064 ft | 442 kts | 41° |
| 2026-05-08 04:37 | 53.53856 | 6.88404 | 31725 ft | 442 kts | 41° |
| 2026-05-08 04:38 | 53.56176 | 6.91813 | 31336 ft | 443 kts | 41° |
| 2026-05-08 04:38 | 53.58508 | 6.95185 | 30925 ft | 444 kts | 40° |
| 2026-05-08 04:38 | 53.60875 | 6.98532 | 30563 ft | 443 kts | 40° |
| 2026-05-08 04:38 | 53.63243 | 7.01863 | 30178 ft | 444 kts | 40° |
| 2026-05-08 04:39 | 53.65611 | 7.05205 | 29772 ft | 444 kts | 40° |
| 2026-05-08 04:39 | 53.67980 | 7.08564 | 29347 ft | 446 kts | 40° |
| 2026-05-08 04:39 | 53.70351 | 7.11940 | 28937 ft | 446 kts | 40° |
| 2026-05-08 04:39 | 53.72689 | 7.15276 | 28519 ft | 446 kts | 40° |
| 2026-05-08 04:40 | 53.75093 | 7.18714 | 28057 ft | 447 kts | 40° |
| 2026-05-08 04:40 | 53.77425 | 7.22075 | 27598 ft | 449 kts | 40° |
| 2026-05-08 04:40 | 53.79802 | 7.25517 | 27122 ft | 450 kts | 41° |
| 2026-05-08 04:40 | 53.82183 | 7.28971 | 26667 ft | 451 kts | 41° |
| 2026-05-08 04:41 | 53.84632 | 7.32293 | 26185 ft | 452 kts | 35° |
| 2026-05-08 04:41 | 53.87300 | 7.35151 | 25627 ft | 453 kts | 29° |
| 2026-05-08 04:41 | 53.90113 | 7.37583 | 25105 ft | 455 kts | 23° |
| 2026-05-08 04:41 | 53.93066 | 7.39534 | 24547 ft | 457 kts | 19° |
| 2026-05-08 04:42 | 53.96086 | 7.41147 | 24345 ft | 451 kts | 14° |
| 2026-05-08 04:42 | 53.99116 | 7.42227 | 24292 ft | 441 kts | 9° |
| 2026-05-08 04:42 | 54.02113 | 7.43126 | 24229 ft | 434 kts | 9° |
| 2026-05-08 04:42 | 54.05069 | 7.44022 | 24151 ft | 427 kts | 9° |
| 2026-05-08 04:43 | 54.07974 | 7.44918 | 24014 ft | 423 kts | 10° |
| 2026-05-08 04:43 | 54.10861 | 7.45824 | 23815 ft | 420 kts | 10° |
| 2026-05-08 04:43 | 54.13739 | 7.46736 | 23518 ft | 420 kts | 10° |
| 2026-05-08 04:43 | 54.16616 | 7.47653 | 23168 ft | 422 kts | 10° |
| 2026-05-08 04:44 | 54.19511 | 7.48574 | 22846 ft | 422 kts | 10° |
| 2026-05-08 04:44 | 54.22399 | 7.49493 | 22541 ft | 422 kts | 10° |
| 2026-05-08 04:44 | 54.25249 | 7.50397 | 22218 ft | 422 kts | 10° |
| 2026-05-08 04:44 | 54.28154 | 7.51318 | 21880 ft | 423 kts | 10° |
| 2026-05-08 04:45 | 54.31043 | 7.52235 | 21520 ft | 424 kts | 10° |
| 2026-05-08 04:45 | 54.33952 | 7.53160 | 21200 ft | 424 kts | 10° |
| 2026-05-08 04:45 | 54.36845 | 7.54083 | 20854 ft | 424 kts | 10° |
| 2026-05-08 04:45 | 54.39753 | 7.55011 | 20482 ft | 425 kts | 10° |
| 2026-05-08 04:46 | 54.42668 | 7.55944 | 20133 ft | 425 kts | 10° |
| 2026-05-08 04:46 | 54.45575 | 7.56877 | 19762 ft | 426 kts | 10° |
| 2026-05-08 04:46 | 54.48491 | 7.57812 | 19377 ft | 426 kts | 10° |
| 2026-05-08 04:46 | 54.51409 | 7.58750 | 19026 ft | 426 kts | 10° |
| 2026-05-08 04:47 | 54.54320 | 7.59686 | 18633 ft | 427 kts | 10° |
| 2026-05-08 04:47 | 54.57241 | 7.60627 | 18264 ft | 426 kts | 10° |
| 2026-05-08 04:47 | 54.60153 | 7.61568 | 18174 ft | 425 kts | 10° |
| 2026-05-08 04:47 | 54.63040 | 7.62500 | 18133 ft | 417 kts | 10° |
| 2026-05-08 04:48 | 54.65849 | 7.63410 | 18054 ft | 405 kts | 10° |
| 2026-05-08 04:48 | 54.68543 | 7.64284 | 17965 ft | 392 kts | 10° |
| 2026-05-08 04:48 | 54.71170 | 7.65137 | 17875 ft | 378 kts | 10° |
| 2026-05-08 04:48 | 54.73701 | 7.65962 | 17782 ft | 364 kts | 10° |
| 2026-05-08 04:49 | 54.76155 | 7.66764 | 17694 ft | 351 kts | 11° |
| 2026-05-08 04:49 | 54.78512 | 7.67534 | 17602 ft | 339 kts | 11° |
| 2026-05-08 04:49 | 54.80797 | 7.68282 | 17453 ft | 329 kts | 11° |
| 2026-05-08 04:49 | 54.83022 | 7.69010 | 17214 ft | 322 kts | 11° |
| 2026-05-08 04:50 | 54.85211 | 7.69728 | 16857 ft | 319 kts | 11° |
| 2026-05-08 04:50 | 54.87391 | 7.70444 | 16443 ft | 319 kts | 11° |
| 2026-05-08 04:50 | 54.89565 | 7.71157 | 16048 ft | 317 kts | 11° |
| 2026-05-08 04:50 | 54.91726 | 7.71869 | 15677 ft | 315 kts | 11° |
| 2026-05-08 04:51 | 54.93875 | 7.72577 | 15296 ft | 313 kts | 11° |
| 2026-05-08 04:51 | 54.96014 | 7.73282 | 14905 ft | 311 kts | 11° |
| 2026-05-08 04:51 | 54.98115 | 7.73987 | 14503 ft | 310 kts | 13° |
| 2026-05-08 04:51 | 55.00173 | 7.75084 | 14092 ft | 309 kts | 22° |
| 2026-05-08 04:52 | 55.02115 | 7.76647 | 13706 ft | 307 kts | 29° |
| 2026-05-08 04:52 | 55.03965 | 7.78461 | 13334 ft | 304 kts | 30° |
| 2026-05-08 04:52 | 55.05798 | 7.80315 | 12975 ft | 302 kts | 31° |
| 2026-05-08 04:52 | 55.07594 | 7.82141 | 12733 ft | 295 kts | 31° |
| 2026-05-08 04:53 | 55.09356 | 7.83924 | 12495 ft | 290 kts | 31° |
| 2026-05-08 04:53 | 55.11092 | 7.85691 | 12188 ft | 287 kts | 31° |
| 2026-05-08 04:53 | 55.12821 | 7.87440 | 11808 ft | 287 kts | 31° |
| 2026-05-08 04:53 | 55.14544 | 7.89180 | 11455 ft | 285 kts | 31° |
| 2026-05-08 04:54 | 55.16256 | 7.90909 | 11104 ft | 283 kts | 31° |
| 2026-05-08 04:54 | 55.17958 | 7.92633 | 10706 ft | 283 kts | 31° |
| 2026-05-08 04:54 | 55.19657 | 7.94351 | 10339 ft | 281 kts | 31° |
| 2026-05-08 04:54 | 55.21343 | 7.96065 | 9986 ft | 279 kts | 32° |
| 2026-05-08 04:55 | 55.23017 | 7.97776 | 9598 ft | 277 kts | 31° |
| 2026-05-08 04:55 | 55.24675 | 7.99456 | 9201 ft | 275 kts | 31° |
| 2026-05-08 04:55 | 55.26327 | 8.01133 | 8875 ft | 269 kts | 31° |
| 2026-05-08 04:55 | 55.27927 | 8.02744 | 8662 ft | 260 kts | 31° |
| 2026-05-08 04:56 | 55.29469 | 8.04309 | 8421 ft | 253 kts | 31° |
| 2026-05-08 04:56 | 55.30975 | 8.05845 | 8119 ft | 248 kts | 32° |
| 2026-05-08 04:56 | 55.32467 | 8.07359 | 7741 ft | 247 kts | 31° |
| 2026-05-08 04:56 | 55.33944 | 8.08875 | 7376 ft | 245 kts | 32° |
| 2026-05-08 04:57 | 55.35401 | 8.10358 | 6994 ft | 244 kts | 32° |
| 2026-05-08 04:57 | 55.36868 | 8.11858 | 6627 ft | 243 kts | 31° |
| 2026-05-08 04:57 | 55.38333 | 8.13358 | 6268 ft | 243 kts | 31° |
| 2026-05-08 04:57 | 55.39788 | 8.14844 | 5920 ft | 241 kts | 31° |
| 2026-05-08 04:58 | 55.41190 | 8.16430 | 5566 ft | 239 kts | 40° |
| 2026-05-08 04:58 | 55.42402 | 8.18408 | 5218 ft | 236 kts | 49° |
| 2026-05-08 04:58 | 55.43478 | 8.20538 | 4971 ft | 229 kts | 51° |
| 2026-05-08 04:58 | 55.44502 | 8.22647 | 4730 ft | 222 kts | 51° |
| 2026-05-08 04:59 | 55.45480 | 8.24669 | 4394 ft | 212 kts | 51° |
| 2026-05-08 04:59 | 55.46426 | 8.26632 | 3923 ft | 209 kts | 52° |
| 2026-05-08 04:59 | 55.47369 | 8.28583 | 3435 ft | 208 kts | 51° |
| 2026-05-08 04:59 | 55.48297 | 8.30502 | 3262 ft | 205 kts | 51° |
| 2026-05-08 05:00 | 55.49223 | 8.32417 | 3265 ft | 202 kts | 51° |
| 2026-05-08 05:00 | 55.50094 | 8.34211 | 3217 ft | 183 kts | 52° |
| 2026-05-08 05:00 | 55.50897 | 8.35869 | 3203 ft | 175 kts | 52° |
| 2026-05-08 05:00 | 55.51699 | 8.37531 | 3244 ft | 181 kts | 52° |
| 2026-05-08 05:01 | 55.52522 | 8.39238 | 3215 ft | 183 kts | 52° |
| 2026-05-08 05:01 | 55.53346 | 8.40941 | 3239 ft | 181 kts | 52° |
| 2026-05-08 05:01 | 55.54164 | 8.42635 | 3216 ft | 181 kts | 52° |
| 2026-05-08 05:01 | 55.54967 | 8.44298 | 3251 ft | 179 kts | 52° |
| 2026-05-08 05:02 | 55.55803 | 8.46028 | 3263 ft | 187 kts | 51° |
| 2026-05-08 05:02 | 55.56656 | 8.47792 | 3246 ft | 190 kts | 51° |
| 2026-05-08 05:02 | 55.57513 | 8.49573 | 3217 ft | 190 kts | 52° |
| 2026-05-08 05:02 | 55.58366 | 8.51345 | 3238 ft | 189 kts | 51° |
| 2026-05-08 05:03 | 55.59219 | 8.53118 | 3213 ft | 190 kts | 51° |
| 2026-05-08 05:03 | 55.60085 | 8.54920 | 3161 ft | 199 kts | 51° |
| 2026-05-08 05:03 | 55.60996 | 8.56812 | 3106 ft | 204 kts | 51° |
| 2026-05-08 05:03 | 55.61918 | 8.58732 | 3043 ft | 204 kts | 51° |
| 2026-05-08 05:04 | 55.62818 | 8.60602 | 2996 ft | 195 kts | 51° |
| 2026-05-08 05:04 | 55.63683 | 8.62400 | 2992 ft | 189 kts | 52° |
| 2026-05-08 05:04 | 55.64530 | 8.64169 | 2995 ft | 189 kts | 51° |
| 2026-05-08 05:04 | 55.65382 | 8.65945 | 2998 ft | 189 kts | 52° |
| 2026-05-08 05:05 | 55.66217 | 8.67690 | 3013 ft | 182 kts | 52° |
| 2026-05-08 05:05 | 55.67024 | 8.69377 | 2993 ft | 177 kts | 52° |
| 2026-05-08 05:05 | 55.67822 | 8.71048 | 3000 ft | 178 kts | 52° |
| 2026-05-08 05:05 | 55.68617 | 8.72711 | 2996 ft | 176 kts | 52° |
| 2026-05-08 05:06 | 55.69399 | 8.74347 | 2990 ft | 172 kts | 52° |
| 2026-05-08 05:06 | 55.70174 | 8.75974 | 2999 ft | 173 kts | 52° |
| 2026-05-08 05:06 | 55.70951 | 8.77603 | 3003 ft | 174 kts | 52° |
| 2026-05-08 05:06 | 55.71734 | 8.79245 | 3001 ft | 174 kts | 52° |
| 2026-05-08 05:07 | 55.72509 | 8.80897 | 2999 ft | 173 kts | 56° |
| 2026-05-08 05:07 | 55.72936 | 8.82831 | 3000 ft | 167 kts | 84° |
| 2026-05-08 05:07 | 55.73037 | 8.84885 | 3008 ft | 168 kts | 88° |
| 2026-05-08 05:07 | 55.73105 | 8.86965 | 3006 ft | 169 kts | 89° |
| 2026-05-08 05:08 | 55.73171 | 8.89050 | 3005 ft | 170 kts | 89° |
| 2026-05-08 05:08 | 55.73238 | 8.91148 | 3007 ft | 170 kts | 89° |
| 2026-05-08 05:08 | 55.73303 | 8.93212 | 2999 ft | 170 kts | 88° |
| 2026-05-08 05:08 | 55.73369 | 8.95289 | 2997 ft | 169 kts | 88° |
| 2026-05-08 05:09 | 55.73436 | 8.97376 | 2994 ft | 168 kts | 88° |
| 2026-05-08 05:09 | 55.73502 | 8.99456 | 3005 ft | 169 kts | 88° |
| 2026-05-08 05:09 | 55.73569 | 9.01543 | 2993 ft | 169 kts | 88° |
| 2026-05-08 05:09 | 55.73636 | 9.03617 | 2996 ft | 169 kts | 88° |
| 2026-05-08 05:10 | 55.73808 | 9.05668 | 2989 ft | 169 kts | 72° |
| 2026-05-08 05:10 | 55.73937 | 9.09687 | 2989 ft | 165 kts | 112° |
| 2026-05-08 05:10 | 55.73185 | 9.11103 | 3000 ft | 163 kts | 155° |
| 2026-05-08 05:11 | 55.72080 | 9.11667 | 3013 ft | 167 kts | 164° |
| 2026-05-08 05:11 | 55.70942 | 9.12222 | 3008 ft | 170 kts | 164° |
| 2026-05-08 05:11 | 55.69800 | 9.12782 | 3009 ft | 170 kts | 163° |
| 2026-05-08 05:11 | 55.68686 | 9.13402 | 2996 ft | 169 kts | 152° |
| 2026-05-08 05:12 | 55.67935 | 9.14896 | 2989 ft | 164 kts | 109° |
| 2026-05-08 05:12 | 55.67826 | 9.16891 | 3014 ft | 164 kts | 93° |
| 2026-05-08 05:12 | 55.67775 | 9.18934 | 3014 ft | 168 kts | 94° |
| 2026-05-08 05:12 | 55.67718 | 9.21015 | 3002 ft | 170 kts | 94° |
| 2026-05-08 05:13 | 55.67655 | 9.23116 | 3000 ft | 171 kts | 94° |
| 2026-05-08 05:13 | 55.67589 | 9.25217 | 2999 ft | 171 kts | 94° |
| 2026-05-08 05:13 | 55.67523 | 9.27319 | 2992 ft | 170 kts | 94° |
| 2026-05-08 05:13 | 55.67459 | 9.29398 | 2999 ft | 169 kts | 94° |
| 2026-05-08 05:14 | 55.67397 | 9.31463 | 3000 ft | 167 kts | 94° |
| 2026-05-08 05:14 | 55.67332 | 9.33523 | 2996 ft | 167 kts | 94° |
| 2026-05-08 05:14 | 55.67269 | 9.35547 | 2999 ft | 166 kts | 94° |
| 2026-05-08 05:14 | 55.67207 | 9.37594 | 2994 ft | 166 kts | 94° |
| 2026-05-08 05:15 | 55.67031 | 9.39591 | 2989 ft | 166 kts | 114° |
| 2026-05-08 05:15 | 55.66471 | 9.41372 | 3005 ft | 167 kts | 120° |
| 2026-05-08 05:15 | 55.65907 | 9.43175 | 3015 ft | 168 kts | 119° |
| 2026-05-08 05:15 | 55.65341 | 9.44995 | 3007 ft | 170 kts | 119° |
| 2026-05-08 05:16 | 55.64771 | 9.46824 | 3004 ft | 170 kts | 119° |
| 2026-05-08 05:16 | 55.64202 | 9.48649 | 2998 ft | 169 kts | 119° |
| 2026-05-08 05:16 | 55.63632 | 9.50465 | 2997 ft | 168 kts | 119° |
| 2026-05-08 05:16 | 55.63067 | 9.52272 | 2991 ft | 167 kts | 119° |
| 2026-05-08 05:17 | 55.62509 | 9.54068 | 2999 ft | 167 kts | 119° |
| 2026-05-08 05:17 | 55.61947 | 9.55864 | 2990 ft | 167 kts | 119° |
| 2026-05-08 05:17 | 55.61382 | 9.57656 | 2998 ft | 167 kts | 119° |
| 2026-05-08 05:17 | 55.60819 | 9.59452 | 3000 ft | 167 kts | 119° |
| 2026-05-08 05:18 | 55.60280 | 9.61277 | 2992 ft | 168 kts | 109° |
| 2026-05-08 05:18 | 55.60209 | 9.63306 | 3018 ft | 166 kts | 87° |
| 2026-05-08 05:18 | 55.60254 | 9.65363 | 3003 ft | 169 kts | 89° |
| 2026-05-08 05:18 | 55.60286 | 9.67451 | 3005 ft | 171 kts | 89° |
| 2026-05-08 05:19 | 55.60316 | 9.69557 | 3002 ft | 171 kts | 89° |
| 2026-05-08 05:19 | 55.60342 | 9.71629 | 3002 ft | 170 kts | 89° |
| 2026-05-08 05:19 | 55.60372 | 9.73704 | 2995 ft | 169 kts | 89° |
| 2026-05-08 05:19 | 55.60629 | 9.75698 | 2980 ft | 166 kts | 57° |
| 2026-05-08 05:20 | 55.61572 | 9.76824 | 3009 ft | 172 kts | 12° |
| 2026-05-08 05:20 | 55.62739 | 9.76486 | 3004 ft | 174 kts | 329° |
| 2026-05-08 05:20 | 55.63517 | 9.74878 | 3014 ft | 175 kts | 299° |
| 2026-05-08 05:20 | 55.64113 | 9.72971 | 3007 ft | 178 kts | 299° |
| 2026-05-08 05:21 | 55.64719 | 9.71054 | 2999 ft | 178 kts | 299° |
| 2026-05-08 05:21 | 55.65316 | 9.69160 | 2984 ft | 173 kts | 299° |
| 2026-05-08 05:21 | 55.65899 | 9.67303 | 2995 ft | 174 kts | 299° |
| 2026-05-08 05:21 | 55.66489 | 9.65423 | 3001 ft | 175 kts | 299° |
| 2026-05-08 05:22 | 55.67101 | 9.63551 | 2993 ft | 175 kts | 307° |
| 2026-05-08 05:22 | 55.68061 | 9.62326 | 3011 ft | 170 kts | 337° |
| 2026-05-08 05:22 | 55.69155 | 9.61475 | 3004 ft | 173 kts | 336° |
| 2026-05-08 05:22 | 55.70227 | 9.60606 | 2986 ft | 165 kts | 336° |
| 2026-05-08 05:23 | 55.71244 | 9.59778 | 2980 ft | 159 kts | 336° |
| 2026-05-08 05:23 | 55.72251 | 9.58960 | 2994 ft | 159 kts | 336° |
| 2026-05-08 05:23 | 55.73251 | 9.58146 | 2989 ft | 158 kts | 336° |
| 2026-05-08 05:23 | 55.74243 | 9.57301 | 2993 ft | 158 kts | 328° |
| 2026-05-08 05:24 | 55.74863 | 9.55824 | 2987 ft | 158 kts | 280° |
| 2026-05-08 05:24 | 55.74900 | 9.53847 | 3014 ft | 161 kts | 271° |
| 2026-05-08 05:24 | 55.74986 | 9.51862 | 3001 ft | 158 kts | 274° |
| 2026-05-08 05:24 | 55.75031 | 9.49943 | 2998 ft | 158 kts | 270° |
| 2026-05-08 05:25 | 55.75017 | 9.48004 | 2998 ft | 157 kts | 268° |
| 2026-05-08 05:25 | 55.74973 | 9.46064 | 3006 ft | 158 kts | 266° |
| 2026-05-08 05:25 | 55.74919 | 9.44112 | 3005 ft | 158 kts | 266° |
| 2026-05-08 05:25 | 55.74860 | 9.42148 | 2897 ft | 162 kts | 266° |
| 2026-05-08 05:26 | 55.74800 | 9.40157 | 2689 ft | 160 kts | 266° |
| 2026-05-08 05:26 | 55.74738 | 9.38202 | 2467 ft | 157 kts | 266° |
| 2026-05-08 05:26 | 55.74680 | 9.36276 | 2277 ft | 157 kts | 266° |
| 2026-05-08 05:26 | 55.74622 | 9.34330 | 2064 ft | 156 kts | 266° |
| 2026-05-08 05:27 | 55.74563 | 9.32433 | 1849 ft | 152 kts | 266° |
| 2026-05-08 05:27 | 55.74524 | 9.31207 | 1715 ft | 149 kts | 266° |
| 2026-05-08 05:27 | 55.74467 | 9.29365 | 1524 ft | 150 kts | 267° |
| 2026-05-08 05:27 | 55.74411 | 9.27523 | 1332 ft | 150 kts | 267° |
| 2026-05-08 05:28 | 55.74354 | 9.25683 | 1141 ft | 149 kts | 267° |
| 2026-05-08 05:28 | 55.74280 | 9.23256 | 868 ft | 148 kts | 267° |
| 2026-05-08 05:28 | 55.74224 | 9.21447 | 673 ft | 147 kts | 267° |
| 2026-05-08 05:28 | 55.74169 | 9.19645 | 483 ft | 146 kts | 267° |
| 2026-05-08 05:29 | 55.74131 | 9.18426 | 359 ft | 146 kts | 267° |
| 2026-05-08 05:29 | 55.74078 | 9.16669 | 253 ft | 136 kts | 267° |
| 2026-05-08 05:29 | 55.74037 | 9.15358 | 241 ft | 38 kts | 267° |
| 2026-05-08 05:29 | 55.73999 | 9.15009 | 240 ft | 28 kts | 244° |
| 2026-05-08 05:30 | 55.73931 | 9.14789 | 238 ft | 10 kts | 242° |
| 2026-05-08 05:30 | 55.73930 | 9.14786 | 237 ft | 0 kts | 242° |
| 2026-05-08 05:30 | 55.73930 | 9.14785 | 237 ft | 0 kts | 242° |
| 2026-05-08 05:31 | 55.73924 | 9.14766 | 237 ft | 6 kts | 242° |
| 2026-05-08 05:31 | 55.73901 | 9.14686 | 236 ft | 9 kts | 244° |
| 2026-05-08 05:31 | 55.73877 | 9.14576 | 237 ft | 10 kts | 252° |
| 2026-05-08 05:31 | 55.73860 | 9.14459 | 237 ft | 10 kts | 258° |
| 2026-05-08 05:32 | 55.73850 | 9.14335 | 235 ft | 10 kts | 264° |
| 2026-05-08 05:32 | 55.73846 | 9.14209 | 237 ft | 10 kts | 267° |
| 2026-05-08 05:32 | 55.73843 | 9.14081 | 232 ft | 10 kts | 266° |
| 2026-05-08 05:32 | 55.73838 | 9.13953 | 232 ft | 10 kts | 266° |
| 2026-05-08 05:33 | 55.73833 | 9.13824 | 233 ft | 11 kts | 264° |
| 2026-05-08 05:33 | 55.73823 | 9.13713 | 231 ft | 1 kts | 239° |
| 2026-05-08 05:33 | 55.73803 | 9.13707 | 232 ft | 10 kts | 176° |
| 2026-05-08 05:33 | 55.73786 | 9.13806 | 231 ft | 9 kts | 80° |
| 2026-05-08 05:34 | 55.73774 | 9.13865 | 231 ft | 7 kts | 171° |
| 2026-05-08 05:34 | 55.73744 | 9.13869 | 231 ft | 0 kts | 175° |